Time;durP1;ratioP1;P1;durP2;ratioP2;P2;SDS_P1;SDS_P2;PMS_P1;PMS_P2;Temp;Humidity;BMP_temperature;BMP_pressure;BME280_temperature;BME280_humidity;BME280_pressure;Samples;Min_cycle;Max_cycle;Signal;HPM_P1;HPM_P2
2023/12/10 00:14:06;;;;;;;33.13;6.25;;;;;;;8.05;100.00;99862.56;6150177;23;20037;-85
2023/12/10 00:16:40;;;;;;;27.92;5.20;;;;;;;6.73;100.00;99637.78;6156053;23;20013;-84
2023/12/10 00:19:43;;;;;;;25.20;5.40;;;;;;;8.12;100.00;99859.59;6155720;23;19998;-83
2023/12/10 00:22:09;;;;;;;29.83;6.93;;;;;;;7.19;100.00;99733.91;6156004;23;20005;-88
2023/12/10 00:24:34;;;;;;;25.27;5.82;;;;;;;7.17;100.00;99707.50;6129860;23;20420;-87
2023/12/10 00:27:10;;;;;;;34.22;7.03;;;;;;;7.44;100.00;99760.53;6156098;23;20009;-84
2023/12/10 00:29:38;;;;;;;25.40;5.50;;;;;;;7.93;100.00;99847.16;6156726;23;20012;-84
2023/12/10 00:32:18;;;;;;;23.55;5.57;;;;;;;7.47;100.00;99771.44;6155823;23;20002;-82
2023/12/10 00:35:06;;;;;;;27.77;5.93;;;;;;;8.22;100.00;99889.72;6155982;23;20021;-84
2023/12/10 00:37:35;;;;;;;22.85;5.63;;;;;;;8.16;100.00;99869.59;6155905;23;20048;-84
2023/12/10 00:40:15;;;;;;;26.25;6.13;;;;;;;7.68;100.00;99817.16;6155877;23;20002;-83
2023/12/10 00:42:57;;;;;;;26.35;5.07;;;;;;;8.01;100.00;99863.72;6130007;23;19998;-84
2023/12/10 00:45:31;;;;;;;25.13;5.80;;;;;;;7.39;100.00;99771.13;6151282;23;20006;-83
2023/12/10 00:47:57;;;;;;;22.55;5.18;;;;;;;7.08;100.00;99741.50;6155582;23;20084;-83
2023/12/10 00:50:34;;;;;;;21.63;4.35;;;;;;;8.11;100.00;99893.94;6155753;23;20435;-83
2023/12/10 00:53:05;;;;;;;19.38;4.63;;;;;;;8.07;100.00;99903.63;6155778;23;20064;-84
2023/12/10 00:55:44;;;;;;;21.58;5.63;;;;;;;6.87;100.00;99741.16;6155711;23;20076;-87
2023/12/10 00:58:09;;;;;;;23.10;4.97;;;;;;;7.37;100.00;99819.16;6155665;23;20009;-87
2023/12/10 01:00:40;;;;;;;22.05;5.57;;;;;;;7.42;100.00;99845.38;6155723;23;20076;-85
2023/12/10 01:03:15;;;;;;;21.30;5.13;;;;;;;7.00;100.00;99779.69;6155205;23;20060;-85
2023/12/10 01:05:43;;;;;;;24.70;4.72;;;;;;;7.69;100.00;99907.00;6155707;23;20446;-85
2023/12/10 01:08:09;;;;;;;23.08;5.45;;;;;;;7.67;100.00;99901.13;6155462;23;20006;-88
2023/12/10 01:10:34;;;;;;;25.33;4.35;;;;;;;7.81;100.00;99915.63;6155310;23;20006;-86
2023/12/10 01:13:08;;;;;;;21.13;4.80;;;;;;;6.41;100.00;99702.25;6154802;23;20001;-84
2023/12/10 01:15:34;;;;;;;21.08;5.32;;;;;;;6.87;100.00;99771.13;6125852;23;20085;-86
2023/12/10 01:18:03;;;;;;;21.88;5.10;;;;;;;7.54;100.00;99881.47;6125595;23;20076;-85
2023/12/10 01:20:42;;;;;;;21.27;5.18;;;;;;;6.54;100.00;99720.25;6125667;23;20009;-83
2023/12/10 01:23:19;;;;;;;20.38;5.15;;;;;;;6.89;100.00;99779.56;6126298;23;20017;-83
2023/12/10 01:25:51;;;;;;;18.48;5.90;;;;;;;7.29;100.00;99847.13;6125714;23;20006;-83
2023/12/10 01:28:20;;;;;;;21.98;5.18;;;;;;;6.47;100.00;99709.53;6125442;23;20009;-83
2023/12/10 01:30:45;;;;;;;25.50;5.93;;;;;;;7.36;100.00;99866.31;6125760;23;20002;-87
2023/12/10 01:33:11;;;;;;;25.45;5.97;;;;;;;6.88;100.00;99777.91;6125490;23;20002;-84
2023/12/10 01:35:56;;;;;;;22.70;5.38;;;;;;;7.84;100.00;99938.56;6099484;23;20501;-86
2023/12/10 01:38:27;;;;;;;21.75;5.47;;;;;;;7.02;100.00;99826.59;6125538;23;20030;-83
2023/12/10 01:40:55;;;;;;;23.15;4.90;;;;;;;6.86;100.00;99805.41;6125487;23;20093;-83
2023/12/10 01:43:20;;;;;;;27.73;5.40;;;;;;;6.79;100.00;99804.16;6125793;23;20400;-86
2023/12/10 01:45:55;;;;;;;20.38;4.93;;;;;;;6.71;100.00;99803.81;6100067;23;20017;-83
2023/12/10 01:48:58;;;;;;;22.20;4.95;;;;;;;7.64;100.00;99969.88;6125571;23;20005;-84
2023/12/10 01:54:24;;;;;;;21.63;5.15;;;;;;;6.71;100.00;99832.06;6125188;23;20014;-84
2023/12/10 01:57:07;;;;;;;21.83;4.50;;;;;;;6.02;100.00;99726.91;6125770;23;20061;-83
2023/12/10 01:59:35;;;;;;;21.42;5.10;;;;;;;7.07;100.00;99904.13;6125901;23;20010;-85
2023/12/10 02:02:08;;;;;;;22.17;4.88;;;;;;;7.02;100.00;99893.34;6125825;23;20001;-83
2023/12/10 02:04:34;;;;;;;22.42;5.28;;;;;;;6.53;100.00;99814.31;6125157;23;20013;-85
2023/12/10 02:07:14;;;;;;;20.35;4.53;;;;;;;7.26;100.00;99934.59;6125614;23;20069;-84
2023/12/10 02:09:42;;;;;;;20.75;4.80;;;;;;;7.38;100.00;99958.72;6125490;23;20002;-84
2023/12/10 02:12:08;;;;;;;19.67;4.65;;;;;;;5.99;100.00;99736.50;6125433;23;20678;-86
2023/12/10 02:14:44;;;;;;;21.48;4.50;;;;;;;6.86;100.00;99888.34;6142518;23;20044;-84
2023/12/10 02:17:22;;;;;;;17.60;4.50;;;;;;;6.13;100.00;99758.75;6128883;23;20017;-83
2023/12/10 02:19:48;;;;;;;19.75;4.43;;;;;;;6.58;100.00;99842.22;6154709;23;20055;-87
2023/12/10 02:22:23;;;;;;;22.10;4.60;;;;;;;6.86;100.00;99892.66;6143392;23;20099;-84
2023/12/10 02:24:59;;;;;;;24.60;4.93;;;;;;;6.86;100.00;99897.78;6186467;23;20082;-84
2023/12/10 02:27:25;;;;;;;22.17;5.03;;;;;;;7.02;100.00;99928.47;6186454;23;20095;-84
2023/12/10 02:32:26;;;;;;;20.33;3.72;;;;;;;6.77;100.00;99903.50;6147548;23;20087;-83
2023/12/10 02:35:00;;;;;;;16.88;4.30;;;;;;;6.71;100.00;99886.75;6154590;23;20320;-83
2023/12/10 02:40:08;;;;;;;21.00;4.95;;;;;;;7.07;100.00;99959.78;6079920;23;1117939;-86
2023/12/10 02:42:49;;;;;;;22.13;4.63;;;;;;;6.58;100.00;99873.00;6127404;23;20018;-84
2023/12/10 02:45:14;;;;;;;20.42;5.05;;;;;;;6.50;100.00;99853.00;6150285;23;20031;-86
2023/12/10 02:47:50;;;;;;;20.00;3.83;;;;;;;6.15;100.00;99797.91;6126895;23;20302;-87
2023/12/10 02:50:25;;;;;;;20.02;3.40;;;;;;;6.24;100.00;99821.25;6127125;23;20049;-88
2023/12/10 02:52:53;;;;;;;18.70;4.00;;;;;;;5.84;100.00;99753.63;6127116;23;20006;-91
2023/12/10 02:55:19;;;;;;;26.25;4.50;;;;;;;6.10;100.00;99789.69;6127728;23;20068;-85
2023/12/10 02:57:55;;;;;;;19.08;4.05;;;;;;;6.46;100.00;99864.34;6127507;23;20006;-85
2023/12/10 03:00:21;;;;;;;16.35;3.45;;;;;;;7.01;100.00;99953.31;6127126;23;20134;-87
2023/12/10 03:02:52;;;;;;;20.67;4.85;;;;;;;7.04;100.00;99934.31;6127284;23;20033;-81
2023/12/10 03:05:17;;;;;;;17.13;4.00;;;;;;;7.39;100.00;100004.03;6100879;23;20510;-88
2023/12/10 03:07:43;;;;;;;17.75;4.70;;;;;;;7.17;100.00;99964.25;6164864;23;20052;-86
2023/12/10 03:10:08;;;;;;;18.02;3.92;;;;;;;7.49;100.00;100005.09;6186469;23;20009;-84
2023/12/10 03:12:34;;;;;;;20.23;4.10;;;;;;;6.67;100.00;99869.88;6186534;23;20001;-86
2023/12/10 03:15:06;;;;;;;20.55;3.90;;;;;;;7.60;100.00;100027.53;6159682;23;20012;-86
2023/12/10 03:17:39;;;;;;;15.63;3.08;;;;;;;6.39;100.00;99842.56;6186435;23;20040;-88
2023/12/10 03:20:05;;;;;;;17.33;4.07;;;;;;;7.69;100.00;100024.38;6186265;23;20005;-89
2023/12/10 03:22:40;;;;;;;19.00;4.68;;;;;;;6.89;100.00;99898.44;6186169;23;20034;-89
2023/12/10 03:25:06;;;;;;;20.67;4.05;;;;;;;7.06;100.00;99914.50;6186368;23;20058;-87
2023/12/10 03:27:31;;;;;;;19.58;4.90;;;;;;;6.56;100.00;99834.63;6146116;23;20017;-85
2023/12/10 03:29:57;;;;;;;22.77;4.63;;;;;;;6.95;100.00;99881.00;6126939;23;20010;-83
2023/12/10 03:32:36;;;;;;;20.33;4.45;;;;;;;6.58;100.00;99814.84;6101152;23;20322;-83
2023/12/10 03:35:26;;;;;;;19.55;4.30;;;;;;;8.03;100.00;100043.59;6101079;23;20037;-85
2023/12/10 03:38:06;;;;;;;16.80;3.83;;;;;;;7.11;100.00;99897.91;6101103;23;20106;-90
2023/12/10 03:40:38;;;;;;;18.75;3.53;;;;;;;7.89;100.00;100033.38;6101017;23;20006;-84
2023/12/10 03:43:24;;;;;;;21.10;4.13;;;;;;;7.86;100.00;100028.41;6126649;23;20380;-84
2023/12/10 03:45:52;;;;;;;19.98;3.63;;;;;;;7.59;100.00;100003.59;6126139;23;20369;-84
2023/12/10 03:48:32;;;;;;;19.75;3.95;;;;;;;7.22;100.00;99925.47;6127034;23;20013;-85
2023/12/10 03:51:18;;;;;;;19.10;4.07;;;;;;;8.04;100.00;100069.19;6126466;23;20037;-83
2023/12/10 03:53:43;;;;;;;18.02;4.50;;;;;;;8.05;100.00;100054.59;6126243;23;20002;-83
2023/12/10 03:56:10;;;;;;;14.20;3.95;;;;;;;7.59;100.00;99990.75;6126987;23;20013;-84
2023/12/10 03:58:36;;;;;;;18.92;4.18;;;;;;;7.47;100.00;99955.53;6126793;23;20002;-85
2023/12/10 04:01:01;;;;;;;20.40;4.85;;;;;;;7.87;100.00;100037.81;6126381;23;20421;-83
2023/12/10 04:03:30;;;;;;;19.83;4.55;;;;;;;6.75;100.00;99869.41;6126698;23;20093;-85
2023/12/10 04:06:08;;;;;;;17.60;4.15;;;;;;;6.86;100.00;99882.38;6126482;23;20006;-91
2023/12/10 04:08:33;;;;;;;18.75;4.65;;;;;;;7.16;100.00;99928.41;6126753;23;20013;-83
2023/12/10 04:10:58;;;;;;;22.85;4.05;;;;;;;7.57;100.00;100005.44;6124662;23;20006;-84
2023/12/10 04:13:24;;;;;;;18.75;4.25;;;;;;;7.92;100.00;100043.47;6125067;23;20420;-84
2023/12/10 04:16:05;;;;;;;18.10;3.63;;;;;;;8.13;100.00;100095.25;6126431;23;20009;-87
2023/12/10 04:18:30;;;;;;;24.25;4.07;;;;;;;7.53;100.00;100003.13;6100605;23;20010;-85
2023/12/10 04:20:56;;;;;;;19.58;3.97;;;;;;;6.89;100.00;99907.88;6126409;23;20421;-85
2023/12/10 04:23:21;;;;;;;17.65;4.15;;;;;;;7.21;100.00;99951.25;6126015;23;20038;-84
2023/12/10 04:25:46;;;;;;;22.05;4.32;;;;;;;7.16;100.00;99956.66;6126412;23;20329;-84
2023/12/10 04:28:24;;;;;;;17.50;3.47;;;;;;;8.17;100.00;100102.69;6147695;23;20096;-84
2023/12/10 04:31:02;;;;;;;16.33;3.90;;;;;;;7.61;100.00;100018.91;6155918;23;20331;-84
2023/12/10 04:33:34;;;;;;;16.67;4.07;;;;;;;6.97;100.00;99931.31;6155764;23;20423;-84
2023/12/10 04:36:31;;;;;;;18.42;3.38;;;;;;;8.20;100.00;100129.94;6155981;23;20031;-88
2023/12/10 04:38:56;;;;;;;13.85;3.78;;;;;;;7.02;100.00;99926.72;6154401;23;20075;-89
2023/12/10 04:41:22;;;;;;;13.82;3.08;;;;;;;8.13;100.00;100119.22;6161928;23;20001;-88
2023/12/10 04:43:48;;;;;;;17.38;3.65;;;;;;;7.31;100.00;99993.41;6130054;23;20009;-87
2023/12/10 04:46:14;;;;;;;20.90;4.07;;;;;;;7.40;100.00;100006.50;6123647;23;20342;-88
2023/12/10 04:48:40;;;;;;;16.83;3.55;;;;;;;7.26;100.00;99997.97;6124000;23;20024;-83
2023/12/10 04:51:25;;;;;;;19.83;3.75;;;;;;;8.21;100.00;100162.44;6124160;23;20399;-89
2023/12/10 04:53:51;;;;;;;17.27;3.88;;;;;;;8.19;100.00;100165.13;6123297;23;20335;-89
2023/12/10 04:56:17;;;;;;;18.45;3.70;;;;;;;8.14;100.00;100156.84;6123850;23;20101;-86
2023/12/10 04:58:42;;;;;;;17.25;3.30;;;;;;;7.61;100.00;100071.09;6124214;23;20017;-85
2023/12/10 05:01:08;;;;;;;19.17;4.15;;;;;;;7.25;100.00;99997.16;6124188;23;20058;-87
2023/12/10 05:03:33;;;;;;;17.27;4.28;;;;;;;8.02;100.00;100140.47;6124461;23;20010;-88
2023/12/10 05:06:14;;;;;;;17.05;3.90;;;;;;;6.92;100.00;99969.28;6136971;23;20108;-87
2023/12/10 05:08:57;;;;;;;22.50;4.47;;;;;;;7.14;100.00;100012.41;6155656;23;20080;-88
2023/12/10 05:11:23;;;;;;;23.00;3.92;;;;;;;7.42;100.00;100068.03;6156017;23;20072;-88
2023/12/10 05:14:01;;;;;;;17.95;3.97;;;;;;;7.53;100.00;100082.78;6155863;23;20009;-84
2023/12/10 05:16:32;;;;;;;19.20;4.40;;;;;;;7.16;100.00;100011.41;6155766;23;20005;-86
2023/12/10 05:19:06;;;;;;;21.02;3.97;;;;;;;7.02;100.00;99993.47;6155858;23;20021;-87
2023/12/10 05:21:33;;;;;;;20.17;3.83;;;;;;;7.98;100.00;100148.47;6155749;23;20005;-89
2023/12/10 05:24:05;;;;;;;17.80;4.00;;;;;;;8.18;100.00;100201.22;6129601;23;20009;-86
2023/12/10 05:29:54;;;;;;;17.88;3.63;;;;;;;7.36;100.00;100058.13;6155067;23;20347;-86
2023/12/10 05:32:20;;;;;;;22.20;4.25;;;;;;;7.37;100.00;100063.16;6155706;23;20009;-85
2023/12/10 05:34:45;;;;;;;17.45;4.50;;;;;;;8.27;100.00;100222.06;6129109;23;20133;-84
2023/12/10 05:37:29;;;;;;;17.42;4.15;;;;;;;7.02;100.00;100034.53;6129241;23;20017;-85
2023/12/10 05:39:57;;;;;;;19.25;4.28;;;;;;;7.32;100.00;100080.63;6128429;23;20088;-85
2023/12/10 05:42:32;;;;;;;18.88;5.03;;;;;;;7.01;100.00;100042.34;6155023;23;20076;-84
2023/12/10 05:45:07;;;;;;;19.88;4.10;;;;;;;7.20;100.00;100068.53;6155360;23;20491;-84
2023/12/10 05:47:33;;;;;;;18.27;4.25;;;;;;;8.24;100.00;100240.22;6155075;23;20063;-84
2023/12/10 05:50:05;;;;;;;20.40;4.10;;;;;;;8.06;100.00;100215.66;6155341;23;20009;-83
2023/12/10 05:52:30;;;;;;;18.17;4.40;;;;;;;7.95;100.00;100200.06;6154853;23;20033;-84
2023/12/10 05:54:56;;;;;;;20.17;4.43;;;;;;;7.99;100.00;100198.97;6154692;23;20009;-84
2023/12/10 05:57:39;;;;;;;20.08;4.65;;;;;;;7.01;100.00;100053.41;6155543;23;20408;-84
2023/12/10 06:00:08;;;;;;;18.25;4.07;;;;;;;7.01;100.00;100056.00;6155472;23;20002;-85
2023/12/10 06:02:33;;;;;;;18.38;4.22;;;;;;;8.10;100.00;100248.00;6155303;23;20001;-86
2023/12/10 06:05:09;;;;;;;19.90;4.00;;;;;;;7.00;100.00;100069.75;6155293;23;20037;-84
2023/12/10 06:07:41;;;;;;;19.60;4.40;;;;;;;6.92;100.00;100077.06;6153188;23;20450;-83
2023/12/10 06:10:27;;;;;;;19.83;4.20;;;;;;;8.29;100.00;100312.81;6155042;23;20009;-85
2023/12/10 06:13:01;;;;;;;18.10;3.63;;;;;;;6.95;100.00;100089.72;6154695;23;20005;-83
2023/12/10 06:15:30;;;;;;;16.70;3.50;;;;;;;8.02;100.00;100278.50;6155274;23;20002;-88
2023/12/10 06:17:55;;;;;;;18.83;3.88;;;;;;;7.54;100.00;100213.72;6155002;23;20101;-84
2023/12/10 06:20:34;;;;;;;15.73;4.40;;;;;;;6.94;100.00;100093.19;6155150;23;20440;-84
2023/12/10 06:25:37;;;;;;;21.02;4.35;;;;;;;7.51;100.00;100207.94;6147558;23;20447;-83
2023/12/10 06:28:12;;;;;;;21.55;4.60;;;;;;;6.88;100.00;100135.47;6154801;23;20587;-84
2023/12/10 06:30:46;;;;;;;18.27;3.88;;;;;;;7.22;100.00;100195.09;6155554;23;20005;-87
2023/12/10 06:33:18;;;;;;;18.50;3.78;;;;;;;6.76;100.00;100148.16;6155496;23;19998;-86
2023/12/10 06:35:58;;;;;;;17.10;4.22;;;;;;;6.87;100.00;100159.47;6155031;23;20452;-85
2023/12/10 06:38:23;;;;;;;22.73;4.45;;;;;;;8.18;100.00;100368.41;6154701;23;20008;-83
2023/12/10 06:40:49;;;;;;;16.77;3.97;;;;;;;7.14;100.00;100204.97;6154706;23;20081;-83
2023/12/10 06:43:29;;;;;;;22.60;5.00;;;;;;;6.97;100.00;100172.59;6155106;23;20002;-87
2023/12/10 06:45:58;;;;;;;23.35;4.57;;;;;;;7.76;100.00;100324.56;6154750;23;20061;-86
2023/12/10 06:48:27;;;;;;;18.00;4.38;;;;;;;7.72;100.00;100322.28;6154597;23;20032;-86
2023/12/10 06:50:55;;;;;;;22.02;4.65;;;;;;;8.22;100.00;100405.88;6154911;23;20009;-86
2023/12/10 06:53:33;;;;;;;17.00;4.15;;;;;;;7.33;100.00;100256.91;6128547;23;20009;-90
2023/12/10 06:55:58;;;;;;;17.45;3.67;;;;;;;7.41;100.00;100259.03;6128572;23;20431;-86
2023/12/10 06:58:29;;;;;;;22.02;5.15;;;;;;;8.26;100.00;100405.59;6154724;23;20005;-88
2023/12/10 07:00:58;;;;;;;21.80;3.72;;;;;;;7.22;100.00;100251.59;6155203;23;20041;-85
2023/12/10 07:03:42;;;;;;;20.42;3.97;;;;;;;7.06;100.00;100220.81;6154912;23;20460;-86
2023/12/10 07:06:07;;;;;;;16.52;4.28;;;;;;;6.92;100.00;100202.84;6154837;23;20008;-84
2023/12/10 07:08:32;;;;;;;14.88;3.97;;;;;;;7.31;100.00;100270.78;6156339;23;20084;-86
2023/12/10 07:10:58;;;;;;;18.77;3.92;;;;;;;7.40;100.00;100304.44;6156058;23;20336;-88
2023/12/10 07:13:24;;;;;;;17.85;4.00;;;;;;;8.29;100.00;100433.72;6156538;23;20002;-88
2023/12/10 07:16:06;;;;;;;19.52;3.70;;;;;;;7.59;100.00;100326.50;6154655;23;20006;-85
2023/12/10 07:18:31;;;;;;;19.80;3.45;;;;;;;7.55;100.00;100338.69;6156768;23;20444;-87
2023/12/10 07:21:03;;;;;;;17.58;3.88;;;;;;;7.34;100.00;100275.72;6130279;23;20041;-87
2023/12/10 07:23:28;;;;;;;17.77;4.55;;;;;;;8.07;100.00;100409.38;6156458;23;20001;-82
2023/12/10 07:25:53;;;;;;;19.70;4.30;;;;;;;7.25;100.00;100263.41;6153706;23;20340;-86
2023/12/10 07:28:31;;;;;;;13.85;3.45;;;;;;;7.11;100.00;100243.69;6129881;23;20005;-88
2023/12/10 07:31:07;;;;;;;19.90;4.35;;;;;;;7.13;100.00;100262.38;6156050;23;20006;-84
2023/12/10 07:33:33;;;;;;;13.02;3.03;;;;;;;8.34;100.00;100457.44;6156188;23;20005;-82
2023/12/10 07:35:58;;;;;;;19.38;3.83;;;;;;;8.32;100.00;100484.97;6155945;23;20012;-79
2023/12/10 07:38:24;;;;;;;18.70;3.22;;;;;;;7.97;100.00;100422.75;6156256;23;20021;-80
2023/12/10 07:40:49;;;;;;;14.60;3.25;;;;;;;8.24;100.00;100479.44;6155991;23;20005;-80
2023/12/10 07:43:15;;;;;;;16.88;3.67;;;;;;;8.31;100.00;100496.19;6156513;23;20040;-82
2023/12/10 07:45:41;;;;;;;15.07;3.55;;;;;;;7.91;100.00;100443.69;6156284;23;20088;-82
2023/12/10 07:48:09;;;;;;;16.73;3.40;;;;;;;8.29;100.00;100520.34;6156192;23;20006;-82
2023/12/10 07:50:34;;;;;;;16.98;3.35;;;;;;;8.29;100.00;100534.03;6156332;23;20120;-83
2023/12/10 07:53:08;;;;;;;15.55;3.60;;;;;;;8.15;100.00;100498.00;6156023;23;20353;-81
2023/12/10 07:55:34;;;;;;;17.15;3.55;;;;;;;7.93;100.00;100469.28;6155991;23;20424;-82
2023/12/10 07:57:59;;;;;;;19.25;4.43;;;;;;;8.32;100.00;100535.59;6156457;23;20072;-82
2023/12/10 08:00:33;;;;;;;20.08;4.10;;;;;;;7.96;100.00;100485.41;6156424;23;20010;-82
2023/12/10 08:03:03;;;;;;;17.80;4.10;;;;;;;6.99;100.00;100311.97;6129391;23;20012;-82
2023/12/10 08:05:28;;;;;;;14.90;3.20;;;;;;;7.89;100.00;100470.41;6156148;23;20009;-84
2023/12/10 08:08:02;;;;;;;16.90;4.10;;;;;;;8.33;100.00;100552.69;6156038;23;20009;-81
2023/12/10 08:10:28;;;;;;;17.80;4.00;;;;;;;8.33;100.00;100547.53;6155828;23;20428;-81
2023/12/10 08:13:06;;;;;;;19.05;4.05;;;;;;;8.34;100.00;100550.06;6156345;23;20006;-82
2023/12/10 08:15:31;;;;;;;17.15;3.65;;;;;;;8.13;100.00;100535.84;6123965;23;20045;-80
2023/12/10 08:17:57;;;;;;;16.80;3.80;;;;;;;8.21;100.00;100561.94;6125842;23;20002;-81
2023/12/10 08:20:22;;;;;;;16.60;3.72;;;;;;;8.32;100.00;100576.75;6126133;23;20029;-81
2023/12/10 08:22:48;;;;;;;19.75;4.00;;;;;;;8.31;100.00;100569.97;6126055;23;20324;-80
2023/12/10 08:25:13;;;;;;;17.15;4.88;;;;;;;8.33;100.00;100568.13;6125113;23;20006;-81
2023/12/10 08:27:39;;;;;;;20.73;4.00;;;;;;;7.98;100.00;100532.41;6126776;23;20006;-85
2023/12/10 08:30:04;;;;;;;24.15;3.67;;;;;;;8.34;100.00;100596.38;6100418;23;20010;-80
2023/12/10 08:32:30;;;;;;;18.90;4.25;;;;;;;8.34;100.00;100596.38;6125812;23;20012;-82
2023/12/10 08:35:00;;;;;;;18.92;4.68;;;;;;;8.32;100.00;100595.59;6125919;23;20002;-81
2023/12/10 08:37:29;;;;;;;21.88;4.25;;;;;;;7.91;100.00;100535.41;6100822;23;20014;-83
2023/12/10 08:40:06;;;;;;;18.92;3.88;;;;;;;7.25;100.00;100435.47;6126434;23;20085;-82
2023/12/10 08:42:37;;;;;;;24.58;4.03;;;;;;;7.53;100.00;100476.69;6126297;23;20081;-82
2023/12/10 08:45:03;;;;;;;20.75;3.92;;;;;;;8.38;100.00;100621.94;6125713;23;20001;-85
2023/12/10 08:47:34;;;;;;;21.27;4.28;;;;;;;8.03;100.00;100566.38;6126428;23;20009;-83
2023/12/10 08:50:03;;;;;;;16.90;3.88;;;;;;;8.06;100.00;100555.09;6125837;23;20428;-82
2023/12/10 08:52:32;;;;;;;21.02;4.20;;;;;;;7.20;100.00;100417.75;6100618;23;20084;-83
2023/12/10 08:54:57;;;;;;;16.10;3.95;;;;;;;8.09;100.00;100567.78;6125720;23;20010;-83
2023/12/10 08:57:24;;;;;;;16.98;3.13;;;;;;;8.18;100.00;100585.28;6124557;23;20459;-82
2023/12/10 08:59:49;;;;;;;16.80;4.07;;;;;;;8.09;100.00;100567.78;6100260;23;20100;-84
2023/12/10 09:02:17;;;;;;;16.42;4.40;;;;;;;8.12;100.00;100577.06;6126116;23;20033;-83
2023/12/10 09:04:42;;;;;;;22.30;3.65;;;;;;;8.40;100.00;100620.09;6126404;23;20001;-82
2023/12/10 09:07:08;;;;;;;22.60;4.60;;;;;;;8.50;100.00;100641.81;6125860;23;20141;-84
2023/12/10 09:09:34;;;;;;;22.90;4.65;;;;;;;8.50;100.00;100641.81;6125489;23;20112;-82
2023/12/10 09:11:59;;;;;;;18.55;3.63;;;;;;;8.23;100.00;100592.72;6125492;23;20029;-82
2023/12/10 09:14:25;;;;;;;23.88;4.30;;;;;;;8.28;100.00;100611.31;6125725;23;20001;-82
2023/12/10 09:16:51;;;;;;;20.05;4.38;;;;;;;8.42;100.00;100644.81;6126096;23;20496;-83
2023/12/10 09:19:17;;;;;;;23.75;4.35;;;;;;;8.40;100.00;100643.25;6125945;23;20076;-83
2023/12/10 09:21:43;;;;;;;18.40;4.07;;;;;;;8.34;100.00;100649.53;6099828;23;20420;-82
2023/12/10 09:24:09;;;;;;;24.23;4.15;;;;;;;8.37;100.00;100641.69;6125777;23;20088;-81
2023/12/10 09:26:36;;;;;;;18.20;4.10;;;;;;;8.09;100.00;100601.22;6125434;23;20084;-82
2023/12/10 09:29:02;;;;;;;22.05;3.97;;;;;;;8.33;100.00;100651.28;6125377;23;20010;-83
2023/12/10 09:31:28;;;;;;;22.33;4.28;;;;;;;8.08;100.00;100609.88;6125455;23;20432;-84
2023/12/10 09:33:53;;;;;;;19.50;3.53;;;;;;;8.21;100.00;100636.53;6125639;23;20007;-82
2023/12/10 09:36:19;;;;;;;18.83;4.82;;;;;;;8.30;100.00;100648.06;6125762;23;20017;-82
2023/12/10 09:38:44;;;;;;;18.48;4.10;;;;;;;7.82;100.00;100585.59;6100175;23;20435;-84
2023/12/10 09:41:11;;;;;;;18.60;4.53;;;;;;;8.18;100.00;100651.34;6125548;23;20010;-81
2023/12/10 09:43:36;;;;;;;21.60;3.72;;;;;;;7.83;100.00;100597.53;6125495;23;20006;-83
2023/12/10 09:46:06;;;;;;;20.52;4.53;;;;;;;8.03;100.00;100632.41;6099231;23;20452;-83
2023/12/10 09:48:31;;;;;;;21.98;4.50;;;;;;;8.14;100.00;100658.38;6125420;23;20421;-81
2023/12/10 09:50:57;;;;;;;21.65;3.92;;;;;;;8.08;100.00;100625.28;6125734;23;20010;-82
2023/12/10 09:53:22;;;;;;;17.98;3.97;;;;;;;8.24;100.00;100649.22;6125616;23;20009;-83
2023/12/10 09:55:48;;;;;;;21.33;3.67;;;;;;;8.09;100.00;100616.66;6125421;23;20006;-81
2023/12/10 09:58:15;;;;;;;19.92;4.50;;;;;;;8.15;100.00;100610.31;6125464;23;20429;-82
2023/12/10 10:00:41;;;;;;;19.80;4.05;;;;;;;8.24;100.00;100609.81;6125913;23;20002;-81
2023/12/10 10:03:06;;;;;;;20.55;4.30;;;;;;;8.49;100.00;100650.47;6099580;23;20484;-84
2023/12/10 10:05:35;;;;;;;19.65;3.97;;;;;;;8.02;100.00;100585.31;6125559;23;20009;-81
2023/12/10 10:08:00;;;;;;;18.13;4.47;;;;;;;8.51;100.00;100658.91;6123635;23;20010;-79
2023/12/10 10:10:25;;;;;;;20.98;4.25;;;;;;;8.15;100.00;100600.88;6100102;23;20491;-80
2023/12/10 10:12:54;;;;;;;20.42;4.55;;;;;;;8.50;100.00;100660.66;6125234;23;20012;-78
2023/12/10 10:15:27;;;;;;;21.95;5.20;;;;;;;8.63;100.00;100663.34;6125370;23;20519;-79
2023/12/10 10:17:54;;;;;;;22.77;4.75;;;;;;;8.31;100.00;100601.66;6125243;23;20012;-78
2023/12/10 10:20:21;;;;;;;24.23;4.78;;;;;;;8.75;100.00;100630.91;6124272;23;20076;-81
2023/12/10 10:22:47;;;;;;;18.80;4.47;;;;;;;8.87;100.00;100651.66;6125722;23;20005;-85
2023/12/10 10:25:12;;;;;;;24.67;4.30;;;;;;;8.93;100.00;100649.63;6125508;23;20001;-82
2023/12/10 10:27:38;;;;;;;18.27;3.72;;;;;;;9.00;100.00;100643.19;6125213;23;20002;-82
2023/12/10 10:30:04;;;;;;;17.65;3.33;;;;;;;8.77;100.00;100606.75;6125528;23;20010;-82
2023/12/10 10:32:30;;;;;;;19.27;4.43;;;;;;;9.04;100.00;100647.22;6125498;23;20005;-81
2023/12/10 10:34:55;;;;;;;19.15;4.45;;;;;;;8.77;100.00;100616.22;6125378;23;20416;-83
2023/12/10 10:37:21;;;;;;;18.05;4.25;;;;;;;8.81;100.00;100658.88;6099880;23;20008;-82
2023/12/10 10:39:50;;;;;;;17.77;3.63;;;;;;;8.74;100.00;100657.59;6125368;23;20057;-81
2023/12/10 10:42:20;;;;;;;18.15;4.15;;;;;;;8.53;100.00;100637.31;6125430;23;20030;-83
2023/12/10 10:44:46;;;;;;;21.73;4.10;;;;;;;8.59;100.00;100643.88;6126962;23;20005;-82
2023/12/10 10:47:12;;;;;;;20.40;4.43;;;;;;;8.30;100.00;100596.63;6127329;23;20006;-75
2023/12/10 10:49:45;;;;;;;20.85;3.88;;;;;;;8.67;100.00;100656.31;6127412;23;20081;-76
2023/12/10 10:52:19;;;;;;;14.13;3.45;;;;;;;8.50;100.00;100626.38;6101144;23;20428;-75
2023/12/10 10:54:46;;;;;;;18.73;3.72;;;;;;;8.71;100.00;100660.34;6127323;23;20017;-74
2023/12/10 10:57:11;;;;;;;23.63;4.05;;;;;;;8.70;100.00;100640.66;6126866;23;20005;-75
2023/12/10 10:59:38;;;;;;;17.58;3.95;;;;;;;8.76;100.00;100656.59;6127110;23;20006;-77
2023/12/10 11:02:09;;;;;;;13.93;2.78;;;;;;;8.67;100.00;100627.97;6127283;23;20009;-78
2023/12/10 11:04:38;;;;;;;16.50;3.97;;;;;;;8.80;100.00;100636.63;6125541;23;20009;-78
2023/12/10 11:07:07;;;;;;;17.77;3.90;;;;;;;8.90;100.00;100636.00;6127032;23;20006;-77
2023/12/10 11:09:56;;;;;;;17.67;4.35;;;;;;;8.90;100.00;100624.88;6127261;23;20041;-78
2023/12/10 11:12:48;;;;;;;14.98;3.15;;;;;;;8.99;100.00;100632.06;6126786;23;20002;-77
2023/12/10 11:15:18;;;;;;;18.80;4.50;;;;;;;8.91;100.00;100622.22;6126878;23;20022;-78
2023/12/10 11:17:59;;;;;;;15.98;3.67;;;;;;;9.04;100.00;100634.34;6101121;23;20100;-79
2023/12/10 11:20:41;;;;;;;14.18;3.22;;;;;;;9.07;100.00;100629.03;6126399;23;20002;-78
2023/12/10 11:23:09;;;;;;;15.93;3.30;;;;;;;9.10;100.00;100626.25;6127446;23;20001;-79
2023/12/10 11:25:35;;;;;;;14.68;3.60;;;;;;;9.13;100.00;100616.59;6126815;23;20013;-79
2023/12/10 11:28:18;;;;;;;17.23;4.38;;;;;;;8.79;100.00;100575.78;6126779;23;20361;-79
2023/12/10 11:30:45;;;;;;;13.90;4.25;;;;;;;9.07;100.00;100616.97;6127029;23;20372;-79
2023/12/10 11:33:12;;;;;;;18.63;3.92;;;;;;;8.91;100.00;100578.44;6126857;23;20056;-78
2023/12/10 11:35:38;;;;;;;15.57;3.50;;;;;;;9.10;100.00;100611.63;6127155;23;20347;-79
2023/12/10 11:38:04;;;;;;;18.02;3.63;;;;;;;9.07;100.00;100600.69;6127112;23;20014;-78
2023/12/10 11:40:30;;;;;;;14.85;3.70;;;;;;;9.14;100.00;100612.28;6127099;23;20089;-80
2023/12/10 11:43:05;;;;;;;18.17;3.50;;;;;;;9.16;100.00;100600.97;6126371;23;20038;-79
2023/12/10 11:45:31;;;;;;;20.60;4.18;;;;;;;9.18;100.00;100606.84;6126615;23;20006;-79
2023/12/10 11:47:57;;;;;;;18.90;3.60;;;;;;;9.13;100.00;100600.31;6126288;23;20421;-80
2023/12/10 11:50:23;;;;;;;17.92;4.03;;;;;;;9.02;100.00;100582.09;6126817;23;20010;-80
2023/12/10 11:52:48;;;;;;;17.38;3.50;;;;;;;9.19;100.00;100607.69;6126711;23;20302;-80
2023/12/10 11:55:14;;;;;;;25.85;4.97;;;;;;;9.19;100.00;100605.09;6126597;23;20451;-80
2023/12/10 11:57:45;;;;;;;23.08;4.30;;;;;;;9.04;100.00;100598.28;6127004;23;20379;-81
2023/12/10 12:00:12;;;;;;;15.35;3.00;;;;;;;8.88;100.00;100568.31;6126182;23;20002;-79